Time;durP1;ratioP1;P1;durP2;ratioP2;P2;SDS_P1;SDS_P2;PMS_P1;PMS_P2;Temp;Humidity;BMP_temperature;BMP_pressure;BME280_temperature;BME280_humidity;BME280_pressure;Samples;Min_cycle;Max_cycle;Signal;HPM_P1;HPM_P2
2021/08/23 00:00:25;;;;;;;;;;;16.50;99.90;;;;;;5074593;28;20097;-74
2021/08/23 00:02:50;;;;;;;;;;;16.30;99.90;;;;;;5074478;28;19904;-74
2021/08/23 00:05:16;;;;;;;;;;;16.20;99.90;;;;;;5074431;28;19909;-74
2021/08/23 00:07:41;;;;;;;;;;;16.20;99.90;;;;;;5061598;28;19905;-75
2021/08/23 00:10:07;;;;;;;;;;;16.00;99.90;;;;;;5061951;28;19998;-74
2021/08/23 00:12:33;;;;;;;;;;;16.00;99.90;;;;;;5086082;28;19950;-74
2021/08/23 00:14:58;;;;;;;;;;;16.00;99.90;;;;;;5082051;28;19948;-73
2021/08/23 00:17:24;;;;;;;;;;;16.10;99.90;;;;;;5054191;28;19958;-74
2021/08/23 00:19:49;;;;;;;;;;;16.10;99.90;;;;;;5054256;28;20003;-75
2021/08/23 00:22:35;;;;;;;;;;;16.00;99.90;;;;;;5054212;28;20423;-74
2021/08/23 00:25:01;;;;;;;;;;;16.00;99.90;;;;;;5054048;28;19919;-73
2021/08/23 00:27:27;;;;;;;;;;;16.00;99.90;;;;;;5054310;28;19999;-74
2021/08/23 00:29:53;;;;;;;;;;;15.90;99.90;;;;;;5054056;28;20360;-73
2021/08/23 00:32:19;;;;;;;;;;;16.00;99.90;;;;;;5054098;28;19956;-74
2021/08/23 00:34:45;;;;;;;;;;;16.00;99.90;;;;;;5053950;28;19957;-74
2021/08/23 00:37:10;;;;;;;;;;;15.90;99.90;;;;;;5052406;28;19953;-75
2021/08/23 00:39:36;;;;;;;;;;;16.00;99.90;;;;;;5054078;28;19924;-74
2021/08/23 00:42:03;;;;;;;;;;;16.10;99.90;;;;;;5053605;28;19962;-73
2021/08/23 00:44:29;;;;;;;;;;;16.10;99.90;;;;;;5052495;28;19905;-75
2021/08/23 00:46:56;;;;;;;;;;;16.10;99.90;;;;;;5053522;28;19912;-74
2021/08/23 00:49:21;;;;;;;;;;;16.10;99.90;;;;;;5052503;28;19909;-74
2021/08/23 00:51:47;;;;;;;;;;;16.10;99.90;;;;;;5053571;28;20296;-73
2021/08/23 00:54:12;;;;;;;;;;;16.10;99.90;;;;;;5052436;28;19912;-75
2021/08/23 00:56:38;;;;;;;;;;;16.10;99.90;;;;;;5053583;28;19969;-73
2021/08/23 00:59:08;;;;;;;;;;;16.20;99.90;;;;;;5052535;28;19920;-75
2021/08/23 01:01:40;;;;;;;;;;;16.20;99.90;;;;;;5053473;28;19911;-74
2021/08/23 01:04:09;;;;;;;;;;;16.20;99.90;;;;;;5053464;28;19909;-74
2021/08/23 01:06:35;;;;;;;;;;;16.30;99.90;;;;;;5061878;28;19916;-74
2021/08/23 01:09:08;;;;;;;;;;;16.30;99.90;;;;;;5053315;28;20241;-74
2021/08/23 01:11:36;;;;;;;;;;;16.20;99.90;;;;;;5077326;28;20257;-74
2021/08/23 01:14:02;;;;;;;;;;;16.20;99.90;;;;;;5093104;28;20451;-75
2021/08/23 01:16:28;;;;;;;;;;;16.20;99.90;;;;;;5093213;28;19953;-74
2021/08/23 01:18:54;;;;;;;;;;;16.20;99.90;;;;;;5091897;28;19908;-75
2021/08/23 01:21:22;;;;;;;;;;;16.30;99.90;;;;;;5080113;28;20403;-75
2021/08/23 01:23:47;;;;;;;;;;;16.20;99.90;;;;;;5073030;28;20553;-74
2021/08/23 01:26:14;;;;;;;;;;;16.30;99.90;;;;;;5072950;28;19911;-73
2021/08/23 01:28:39;;;;;;;;;;;16.30;99.90;;;;;;5072910;28;19948;-74
2021/08/23 01:31:10;;;;;;;;;;;16.30;99.90;;;;;;5072880;28;19943;-74
2021/08/23 01:33:36;;;;;;;;;;;16.30;99.90;;;;;;5071457;28;19965;-74
2021/08/23 01:36:02;;;;;;;;;;;16.30;99.90;;;;;;5071492;28;19908;-74
2021/08/23 01:38:28;;;;;;;;;;;16.20;99.90;;;;;;5072750;28;20294;-74
2021/08/23 01:40:59;;;;;;;;;;;16.20;99.90;;;;;;5072796;28;19905;-74
2021/08/23 01:43:25;;;;;;;;;;;16.20;99.90;;;;;;5072745;28;19905;-74
2021/08/23 01:45:50;;;;;;;;;;;16.20;99.90;;;;;;5072471;28;19911;-74
2021/08/23 01:48:16;;;;;;;;;;;16.10;99.90;;;;;;5072346;28;19927;-75
2021/08/23 01:50:41;;;;;;;;;;;16.10;99.90;;;;;;5072561;28;19908;-74
2021/08/23 01:53:06;;;;;;;;;;;16.10;99.90;;;;;;5072429;28;19912;-73
2021/08/23 01:55:32;;;;;;;;;;;16.10;99.90;;;;;;5071895;28;19908;-75
2021/08/23 01:57:57;;;;;;;;;;;16.20;99.90;;;;;;5072374;28;19904;-73
2021/08/23 02:00:23;;;;;;;;;;;16.20;99.90;;;;;;5070719;28;19955;-75
2021/08/23 02:02:48;;;;;;;;;;;16.30;99.90;;;;;;5066185;28;20288;-74
2021/08/23 02:05:14;;;;;;;;;;;16.20;99.90;;;;;;5067896;28;19997;-73
2021/08/23 02:07:39;;;;;;;;;;;16.30;99.90;;;;;;5070050;28;20365;-75
2021/08/23 02:10:05;;;;;;;;;;;16.30;99.90;;;;;;5072217;28;19926;-75
2021/08/23 02:12:30;;;;;;;;;;;16.30;99.90;;;;;;5072354;28;19924;-73
2021/08/23 02:14:56;;;;;;;;;;;16.30;99.90;;;;;;5071987;28;19908;-74
2021/08/23 02:17:21;;;;;;;;;;;16.30;99.90;;;;;;5071980;28;20363;-73
2021/08/23 02:19:47;;;;;;;;;;;16.30;99.90;;;;;;5072045;28;20378;-73
2021/08/23 02:22:12;;;;;;;;;;;16.30;99.90;;;;;;5072130;28;19926;-74
2021/08/23 02:24:38;;;;;;;;;;;16.30;99.90;;;;;;5070873;28;19946;-74
2021/08/23 02:27:03;;;;;;;;;;;16.30;99.90;;;;;;5072110;28;19950;-74
2021/08/23 02:29:29;;;;;;;;;;;16.30;99.90;;;;;;5072207;28;19957;-73
2021/08/23 02:31:54;;;;;;;;;;;16.40;99.90;;;;;;5070713;28;19995;-74
2021/08/23 02:34:19;;;;;;;;;;;16.30;99.90;;;;;;5072115;28;19904;-74
2021/08/23 02:36:45;;;;;;;;;;;16.30;99.90;;;;;;5070415;28;20319;-73
2021/08/23 02:39:10;;;;;;;;;;;16.30;99.90;;;;;;5070779;28;19944;-73
2021/08/23 02:41:36;;;;;;;;;;;16.30;99.90;;;;;;5072029;28;19908;-73
2021/08/23 02:44:01;;;;;;;;;;;16.30;99.90;;;;;;5071956;28;19905;-74
2021/08/23 02:46:27;;;;;;;;;;;16.30;99.90;;;;;;5071818;28;19912;-74
2021/08/23 02:48:52;;;;;;;;;;;16.30;99.90;;;;;;5071887;28;20073;-74
2021/08/23 02:51:18;;;;;;;;;;;16.30;99.90;;;;;;5071745;28;20347;-74
2021/08/23 02:53:43;;;;;;;;;;;16.30;99.90;;;;;;5070607;28;19912;-74
2021/08/23 02:56:09;;;;;;;;;;;16.30;99.90;;;;;;5071611;28;20254;-74
2021/08/23 02:58:34;;;;;;;;;;;16.30;99.90;;;;;;5070496;28;19912;-74
2021/08/23 03:01:00;;;;;;;;;;;16.30;99.90;;;;;;5071682;28;20276;-73
2021/08/23 03:03:25;;;;;;;;;;;16.30;99.90;;;;;;5070505;28;19912;-73
2021/08/23 03:05:51;;;;;;;;;;;16.20;99.90;;;;;;5075220;28;19905;-73
2021/08/23 03:08:16;;;;;;;;;;;16.20;99.90;;;;;;5082115;28;20282;-74
2021/08/23 03:10:42;;;;;;;;;;;16.20;99.90;;;;;;5078768;28;19927;-74
2021/08/23 03:13:07;;;;;;;;;;;16.20;99.90;;;;;;5075464;28;19904;-74
2021/08/23 03:15:32;;;;;;;;;;;16.20;99.90;;;;;;5075332;28;19951;-75
2021/08/23 03:17:58;;;;;;;;;;;16.20;99.90;;;;;;5075208;28;19954;-73
2021/08/23 03:20:23;;;;;;;;;;;16.30;99.90;;;;;;5075449;28;19905;-74
2021/08/23 03:22:49;;;;;;;;;;;16.30;99.90;;;;;;5075248;28;19904;-74
2021/08/23 03:25:14;;;;;;;;;;;16.20;99.90;;;;;;5075397;28;19911;-73
2021/08/23 03:27:40;;;;;;;;;;;16.20;99.90;;;;;;5073956;28;20344;-74
2021/08/23 03:30:06;;;;;;;;;;;16.20;99.90;;;;;;5075403;28;20283;-74
2021/08/23 03:32:32;;;;;;;;;;;16.10;99.90;;;;;;5075280;28;19958;-74
2021/08/23 03:34:57;;;;;;;;;;;16.10;99.90;;;;;;5075228;28;19940;-73
2021/08/23 03:37:22;;;;;;;;;;;16.20;99.90;;;;;;5074948;28;19904;-74
2021/08/23 03:39:48;;;;;;;;;;;16.10;99.90;;;;;;5075110;28;19904;-73
2021/08/23 03:42:13;;;;;;;;;;;16.10;99.90;;;;;;5075052;28;19996;-75
2021/08/23 03:44:39;;;;;;;;;;;16.10;99.90;;;;;;5073495;28;19904;-73
2021/08/23 03:47:04;;;;;;;;;;;16.00;99.90;;;;;;5074914;28;20333;-73
2021/08/23 03:49:30;;;;;;;;;;;16.00;99.90;;;;;;5074759;28;20316;-74
2021/08/23 03:51:55;;;;;;;;;;;16.10;99.90;;;;;;5074846;28;19908;-75
2021/08/23 03:54:21;;;;;;;;;;;16.10;99.90;;;;;;5074801;28;19911;-74
2021/08/23 03:56:46;;;;;;;;;;;16.10;99.90;;;;;;5074687;28;19919;-75
2021/08/23 03:59:11;;;;;;;;;;;16.20;99.90;;;;;;5073282;28;19919;-73
2021/08/23 04:01:37;;;;;;;;;;;16.20;99.90;;;;;;5074692;28;20352;-74
2021/08/23 04:04:02;;;;;;;;;;;16.10;99.90;;;;;;5077342;28;20342;-75
2021/08/23 04:06:28;;;;;;;;;;;16.20;99.90;;;;;;5081268;28;19904;-74
2021/08/23 04:08:53;;;;;;;;;;;16.20;99.90;;;;;;5078060;28;19909;-73
2021/08/23 04:11:19;;;;;;;;;;;16.30;99.90;;;;;;5074608;28;19909;-73
2021/08/23 04:13:44;;;;;;;;;;;16.20;99.90;;;;;;5073126;28;19905;-75
2021/08/23 04:16:14;;;;;;;;;;;16.20;99.90;;;;;;5072609;28;19908;-74
2021/08/23 04:18:39;;;;;;;;;;;16.20;99.90;;;;;;5074339;28;19905;-73
2021/08/23 04:21:05;;;;;;;;;;;16.20;99.90;;;;;;5074212;28;19958;-74
2021/08/23 04:23:30;;;;;;;;;;;16.20;99.90;;;;;;5074112;28;19958;-74
2021/08/23 04:25:56;;;;;;;;;;;16.20;99.90;;;;;;5074207;28;19912;-73
2021/08/23 04:28:21;;;;;;;;;;;16.20;99.90;;;;;;5074113;28;19904;-74
2021/08/23 04:30:47;;;;;;;;;;;16.20;99.90;;;;;;5073667;28;19904;-74
2021/08/23 04:33:12;;;;;;;;;;;16.30;99.90;;;;;;5074185;28;19904;-74
2021/08/23 04:35:38;;;;;;;;;;;16.30;99.90;;;;;;5072450;28;20001;-74
2021/08/23 04:38:03;;;;;;;;;;;16.30;99.90;;;;;;5073736;28;20299;-75
2021/08/23 04:40:29;;;;;;;;;;;16.30;99.90;;;;;;5073727;28;20004;-73
2021/08/23 04:42:55;;;;;;;;;;;16.30;99.90;;;;;;5073739;28;19958;-74
2021/08/23 04:45:21;;;;;;;;;;;16.30;99.90;;;;;;5072131;28;20351;-74
2021/08/23 04:47:46;;;;;;;;;;;16.30;99.90;;;;;;5072291;28;19936;-73
2021/08/23 04:50:12;;;;;;;;;;;16.20;99.90;;;;;;5073472;28;19911;-75
2021/08/23 04:52:44;;;;;;;;;;;16.20;99.90;;;;;;5072149;28;19944;-73
2021/08/23 04:55:10;;;;;;;;;;;16.20;99.90;;;;;;5073250;28;19912;-74
2021/08/23 04:57:36;;;;;;;;;;;16.20;99.90;;;;;;5073274;28;20007;-73
2021/08/23 05:00:02;;;;;;;;;;;16.10;99.90;;;;;;5072084;28;19963;-73
2021/08/23 05:02:28;;;;;;;;;;;16.10;99.90;;;;;;5073268;28;19904;-75
2021/08/23 05:04:53;;;;;;;;;;;16.00;99.90;;;;;;5069350;28;19913;-71
2021/08/23 05:07:19;;;;;;;;;;;16.00;99.90;;;;;;5080088;28;19911;-72
2021/08/23 05:09:44;;;;;;;;;;;16.00;99.90;;;;;;5073167;28;20330;-72
2021/08/23 05:12:09;;;;;;;;;;;16.00;99.90;;;;;;5073208;28;19909;-72
2021/08/23 05:14:35;;;;;;;;;;;15.90;99.90;;;;;;5072977;28;20054;-72
2021/08/23 05:17:00;;;;;;;;;;;16.00;99.90;;;;;;5055244;28;19913;-72
2021/08/23 05:19:26;;;;;;;;;;;15.90;99.90;;;;;;5053312;28;20304;-71
2021/08/23 05:21:51;;;;;;;;;;;15.90;99.90;;;;;;5053212;28;19904;-71
2021/08/23 05:24:17;;;;;;;;;;;15.90;99.90;;;;;;5065879;28;19915;-73
2021/08/23 05:26:42;;;;;;;;;;;15.90;99.90;;;;;;5071346;28;19985;-72
2021/08/23 05:29:07;;;;;;;;;;;15.90;99.90;;;;;;5071939;28;19908;-72
2021/08/23 05:31:33;;;;;;;;;;;15.90;99.90;;;;;;5072844;28;19910;-72
2021/08/23 05:33:58;;;;;;;;;;;15.90;99.90;;;;;;5072628;28;20012;-72
2021/08/23 05:36:24;;;;;;;;;;;16.00;99.90;;;;;;5071350;28;19913;-72
2021/08/23 05:38:50;;;;;;;;;;;16.00;99.90;;;;;;5071359;28;19998;-71
2021/08/23 05:41:15;;;;;;;;;;;16.00;99.90;;;;;;5070630;28;19923;-72
2021/08/23 05:43:41;;;;;;;;;;;16.00;99.90;;;;;;5080233;28;20251;-72
2021/08/23 05:46:06;;;;;;;;;;;16.00;99.90;;;;;;5092540;28;19961;-71
2021/08/23 05:48:32;;;;;;;;;;;16.10;99.90;;;;;;5079668;28;19965;-73
2021/08/23 05:50:57;;;;;;;;;;;16.10;99.90;;;;;;5072417;28;19911;-71
2021/08/23 05:53:23;;;;;;;;;;;16.10;99.90;;;;;;5072443;28;19973;-72
2021/08/23 05:55:48;;;;;;;;;;;16.10;99.90;;;;;;5071046;28;19909;-71
2021/08/23 05:58:14;;;;;;;;;;;16.20;99.90;;;;;;5072168;28;19911;-71
2021/08/23 06:00:39;;;;;;;;;;;16.20;99.90;;;;;;5062393;28;19912;-73
2021/08/23 06:03:05;;;;;;;;;;;16.30;99.90;;;;;;5072427;28;20299;-72
2021/08/23 06:05:30;;;;;;;;;;;16.40;99.90;;;;;;5072260;28;19904;-73
2021/08/23 06:07:56;;;;;;;;;;;16.50;99.90;;;;;;5072418;28;19913;-71
2021/08/23 06:10:21;;;;;;;;;;;16.60;99.90;;;;;;5083724;28;19904;-73
2021/08/23 06:12:47;;;;;;;;;;;16.60;99.90;;;;;;5092342;28;19926;-72
2021/08/23 06:15:12;;;;;;;;;;;16.80;99.90;;;;;;5092046;28;20352;-72
2021/08/23 06:17:38;;;;;;;;;;;16.90;99.90;;;;;;5090936;28;19990;-73
2021/08/23 06:20:04;;;;;;;;;;;17.10;99.90;;;;;;5092223;28;19904;-72
2021/08/23 06:22:30;;;;;;;;;;;17.30;99.90;;;;;;5092328;28;19904;-72
2021/08/23 06:24:56;;;;;;;;;;;17.50;99.90;;;;;;5091941;28;19908;-72
2021/08/23 06:27:22;;;;;;;;;;;17.40;99.90;;;;;;5091914;28;19972;-73
2021/08/23 06:29:47;;;;;;;;;;;17.50;99.90;;;;;;5092051;28;19908;-74
2021/08/23 06:32:13;;;;;;;;;;;17.50;99.90;;;;;;5092325;28;19904;-73
2021/08/23 06:34:38;;;;;;;;;;;17.60;99.90;;;;;;5091889;28;19991;-72
2021/08/23 06:37:04;;;;;;;;;;;17.60;99.90;;;;;;5090607;28;20291;-72
2021/08/23 06:39:29;;;;;;;;;;;17.60;99.90;;;;;;5092102;28;19943;-71
2021/08/23 06:41:55;;;;;;;;;;;17.60;99.90;;;;;;5096067;28;19958;-72
2021/08/23 06:44:20;;;;;;;;;;;17.60;99.90;;;;;;5096243;28;19911;-73
2021/08/23 06:46:46;;;;;;;;;;;17.50;99.90;;;;;;5094597;28;19915;-72
2021/08/23 06:49:11;;;;;;;;;;;17.60;99.90;;;;;;5096199;28;20394;-71
2021/08/23 06:51:37;;;;;;;;;;;17.60;99.90;;;;;;5096177;28;19904;-71
2021/08/23 06:54:02;;;;;;;;;;;17.60;99.90;;;;;;5096272;28;19904;-73
2021/08/23 06:56:28;;;;;;;;;;;17.60;99.90;;;;;;5095647;28;19987;-72
2021/08/23 06:58:54;;;;;;;;;;;17.50;99.90;;;;;;5095704;28;20014;-72
2021/08/23 07:01:20;;;;;;;;;;;17.50;99.90;;;;;;5094543;28;19911;-72
2021/08/23 07:03:46;;;;;;;;;;;17.60;99.90;;;;;;5096011;28;19908;-72
2021/08/23 07:06:12;;;;;;;;;;;17.70;99.90;;;;;;5095744;28;19903;-72
2021/08/23 07:08:37;;;;;;;;;;;17.60;99.90;;;;;;5068936;28;20011;-73
2021/08/23 07:11:03;;;;;;;;;;;17.60;99.90;;;;;;5055393;28;20079;-73
2021/08/23 07:13:29;;;;;;;;;;;17.60;99.90;;;;;;5055541;28;19904;-72
2021/08/23 07:15:55;;;;;;;;;;;17.60;99.90;;;;;;5054031;28;19999;-72
2021/08/23 07:18:22;;;;;;;;;;;17.70;99.90;;;;;;5055545;28;19905;-73
2021/08/23 07:20:50;;;;;;;;;;;17.80;99.90;;;;;;5055576;28;20367;-73
2021/08/23 07:23:15;;;;;;;;;;;17.90;99.90;;;;;;5055369;28;19930;-72
2021/08/23 07:25:41;;;;;;;;;;;18.00;99.90;;;;;;5055184;28;20284;-72
2021/08/23 07:28:06;;;;;;;;;;;18.00;99.90;;;;;;5054869;28;19909;-72
2021/08/23 07:30:32;;;;;;;;;;;18.10;99.90;;;;;;5055180;28;19944;-72
2021/08/23 07:32:57;;;;;;;;;;;18.20;99.90;;;;;;5055242;28;19948;-72
2021/08/23 07:35:23;;;;;;;;;;;18.30;99.90;;;;;;5055100;28;19963;-72
2021/08/23 07:37:48;;;;;;;;;;;18.40;99.90;;;;;;5054920;28;19958;-72
2021/08/23 07:40:14;;;;;;;;;;;18.40;99.90;;;;;;5055163;28;19952;-73
2021/08/23 07:42:40;;;;;;;;;;;18.50;99.90;;;;;;5054973;28;19908;-72
2021/08/23 07:45:06;;;;;;;;;;;18.50;99.90;;;;;;5054911;28;20417;-73
2021/08/23 07:47:32;;;;;;;;;;;18.50;99.90;;;;;;5054618;28;19911;-72
2021/08/23 07:49:57;;;;;;;;;;;18.60;99.90;;;;;;5077479;28;19903;-74
2021/08/23 07:52:23;;;;;;;;;;;18.40;99.90;;;;;;5088532;28;19908;-75
2021/08/23 07:54:48;;;;;;;;;;;18.20;99.90;;;;;;5084317;28;19912;-75
2021/08/23 07:57:15;;;;;;;;;;;18.50;99.90;;;;;;5054239;28;20317;-75
2021/08/23 07:59:40;;;;;;;;;;;18.60;99.90;;;;;;5054332;28;19913;-74
2021/08/23 08:02:06;;;;;;;;;;;18.80;99.90;;;;;;5054868;28;19909;-74
2021/08/23 08:04:31;;;;;;;;;;;18.90;99.90;;;;;;5054539;28;20395;-74
2021/08/23 08:06:57;;;;;;;;;;;18.70;99.90;;;;;;5067375;28;19905;-74
2021/08/23 08:09:22;;;;;;;;;;;18.50;99.90;;;;;;5066106;28;19908;-75
2021/08/23 08:11:48;;;;;;;;;;;18.50;99.90;;;;;;5074287;28;19904;-74
2021/08/23 08:14:13;;;;;;;;;;;18.60;99.90;;;;;;5073071;28;19908;-74
2021/08/23 08:16:39;;;;;;;;;;;18.80;99.90;;;;;;5074261;28;19934;-74
2021/08/23 08:19:04;;;;;;;;;;;18.90;99.90;;;;;;5073990;28;19993;-73
2021/08/23 08:21:29;;;;;;;;;;;19.20;99.90;;;;;;5072804;28;19905;-75
2021/08/23 08:23:55;;;;;;;;;;;19.40;99.90;;;;;;5074186;28;19920;-75
2021/08/23 08:26:21;;;;;;;;;;;19.70;99.90;;;;;;5072695;28;20383;-74
2021/08/23 08:28:47;;;;;;;;;;;19.80;99.90;;;;;;5074198;28;20018;-75
2021/08/23 08:31:12;;;;;;;;;;;19.90;99.90;;;;;;5074308;28;19904;-74
2021/08/23 08:33:37;;;;;;;;;;;20.00;99.90;;;;;;5074548;28;19905;-74
2021/08/23 08:36:03;;;;;;;;;;;19.70;99.90;;;;;;5074861;28;20269;-73
2021/08/23 08:38:28;;;;;;;;;;;19.60;99.90;;;;;;5074809;28;19905;-75
2021/08/23 08:40:57;;;;;;;;;;;19.50;99.90;;;;;;5074074;28;19904;-73
2021/08/23 08:43:22;;;;;;;;;;;19.50;99.90;;;;;;5072931;28;19912;-74
2021/08/23 08:45:48;;;;;;;;;;;19.50;99.90;;;;;;5073990;28;20348;-74
2021/08/23 08:48:15;;;;;;;;;;;19.50;99.90;;;;;;5073910;28;19905;-75
2021/08/23 08:50:40;;;;;;;;;;;19.50;99.90;;;;;;5074074;28;19983;-73
2021/08/23 08:53:06;;;;;;;;;;;19.90;99.90;;;;;;5074123;28;19951;-73
2021/08/23 08:55:36;;;;;;;;;;;19.90;99.90;;;;;;5073707;28;19908;-74
2021/08/23 08:58:06;;;;;;;;;;;19.80;99.90;;;;;;5073876;28;20035;-74
2021/08/23 09:00:32;;;;;;;;;;;19.90;99.90;;;;;;5072460;28;20380;-75
2021/08/23 09:03:00;;;;;;;;;;;20.00;99.90;;;;;;5073438;28;19911;-74
2021/08/23 09:05:33;;;;;;;;;;;20.10;99.90;;;;;;5071973;28;19911;-74
2021/08/23 09:08:01;;;;;;;;;;;20.00;99.90;;;;;;5071851;28;20003;-75
2021/08/23 09:10:26;;;;;;;;;;;20.20;99.90;;;;;;5053542;28;19909;-76
2021/08/23 09:12:58;;;;;;;;;;;20.70;99.90;;;;;;5053263;28;19966;-75
2021/08/23 09:15:24;;;;;;;;;;;21.50;99.90;;;;;;5051568;28;19909;-74
2021/08/23 09:17:58;;;;;;;;;;;21.10;99.90;;;;;;5052019;28;19954;-74
2021/08/23 09:20:24;;;;;;;;;;;21.10;99.90;;;;;;5052884;28;19909;-73
2021/08/23 09:22:52;;;;;;;;;;;20.90;99.90;;;;;;5053735;28;19905;-75
2021/08/23 09:25:23;;;;;;;;;;;20.50;99.90;;;;;;5052058;28;19905;-73
2021/08/23 09:27:48;;;;;;;;;;;20.30;99.90;;;;;;5053457;28;19952;-73
2021/08/23 09:30:14;;;;;;;;;;;20.00;99.90;;;;;;5052893;28;19905;-75
2021/08/23 09:32:52;;;;;;;;;;;19.70;99.90;;;;;;5053738;28;19905;-74
2021/08/23 09:35:35;;;;;;;;;;;19.60;99.90;;;;;;5053943;28;19905;-75
2021/08/23 09:38:01;;;;;;;;;;;19.40;99.90;;;;;;5053835;28;19912;-74
2021/08/23 09:40:33;;;;;;;;;;;19.90;99.90;;;;;;5053349;28;19909;-74
2021/08/23 09:43:00;;;;;;;;;;;20.00;99.90;;;;;;5052986;28;19905;-74
2021/08/23 09:45:26;;;;;;;;;;;19.90;99.90;;;;;;5052806;28;20380;-74
2021/08/23 09:48:01;;;;;;;;;;;20.60;99.90;;;;;;5052576;28;19971;-74
2021/08/23 09:50:36;;;;;;;;;;;20.90;99.90;;;;;;5051254;28;19908;-74
2021/08/23 09:53:05;;;;;;;;;;;20.80;99.90;;;;;;5052618;28;19904;-75
2021/08/23 09:55:31;;;;;;;;;;;20.80;99.90;;;;;;5052534;28;19908;-74
2021/08/23 09:57:56;;;;;;;;;;;20.70;99.90;;;;;;5052263;28;20387;-74
2021/08/23 10:00:22;;;;;;;;;;;20.50;99.90;;;;;;5052878;28;19913;-76
2021/08/23 10:02:48;;;;;;;;;;;20.90;99.90;;;;;;5074849;28;19911;-74
2021/08/23 10:05:17;;;;;;;;;;;21.10;99.90;;;;;;5070909;28;19905;-74
2021/08/23 10:07:43;;;;;;;;;;;21.10;99.90;;;;;;5071941;28;19904;-75
2021/08/23 10:10:09;;;;;;;;;;;21.20;99.90;;;;;;5053119;28;19909;-74
2021/08/23 10:12:35;;;;;;;;;;;21.10;99.90;;;;;;5050779;28;20353;-75
2021/08/23 10:15:00;;;;;;;;;;;21.30;99.90;;;;;;5051626;28;19999;-74
2021/08/23 10:17:28;;;;;;;;;;;20.80;99.90;;;;;;5050782;28;19908;-74
2021/08/23 10:19:53;;;;;;;;;;;20.60;99.90;;;;;;5052062;28;19905;-75
2021/08/23 10:22:19;;;;;;;;;;;20.90;99.90;;;;;;5052121;28;19958;-74
2021/08/23 10:24:46;;;;;;;;;;;20.90;99.90;;;;;;5051933;28;19947;-74
2021/08/23 10:27:20;;;;;;;;;;;20.90;99.90;;;;;;5050661;28;19918;-74
2021/08/23 10:29:47;;;;;;;;;;;21.00;99.90;;;;;;5051973;28;19927;-75
2021/08/23 10:32:13;;;;;;;;;;;21.80;99.90;;;;;;5050795;28;19905;-75
2021/08/23 10:34:38;;;;;;;;;;;21.10;99.90;;;;;;5051976;28;19912;-74
2021/08/23 10:37:17;;;;;;;;;;;20.90;99.90;;;;;;5052174;28;19908;-74
2021/08/23 10:39:42;;;;;;;;;;;21.40;99.90;;;;;;5050603;28;19905;-73
2021/08/23 10:42:12;;;;;;;;;;;21.30;99.90;;;;;;5051878;28;19958;-75
2021/08/23 10:44:38;;;;;;;;;;;21.30;99.90;;;;;;5051813;28;20375;-75
2021/08/23 10:47:03;;;;;;;;;;;21.00;99.90;;;;;;5051945;28;19905;-76
2021/08/23 10:49:36;;;;;;;;;;;21.20;99.90;;;;;;5050316;28;19905;-75
2021/08/23 10:52:03;;;;;;;;;;;21.40;99.90;;;;;;5050608;28;20365;-74
2021/08/23 10:54:34;;;;;;;;;;;21.20;99.90;;;;;;5051771;28;19911;-74
2021/08/23 10:56:59;;;;;;;;;;;21.00;99.90;;;;;;5050439;28;20284;-75
2021/08/23 10:59:35;;;;;;;;;;;20.90;99.90;;;;;;5050519;28;19913;-76
2021/08/23 11:02:01;;;;;;;;;;;20.60;99.90;;;;;;5051962;28;19948;-75
2021/08/23 11:04:31;;;;;;;;;;;20.50;99.90;;;;;;5050600;28;19954;-74
2021/08/23 11:06:57;;;;;;;;;;;20.80;99.90;;;;;;5050583;28;20014;-74
2021/08/23 11:09:33;;;;;;;;;;;21.00;99.90;;;;;;5051757;28;20368;-74
2021/08/23 11:12:18;;;;;;;;;;;21.20;99.90;;;;;;5051899;28;20046;-73
2021/08/23 11:14:54;;;;;;;;;;;21.00;99.90;;;;;;5051754;28;19905;-74
2021/08/23 11:17:30;;;;;;;;;;;21.10;99.90;;;;;;5051680;28;19909;-74
2021/08/23 11:19:56;;;;;;;;;;;21.00;99.90;;;;;;5050298;28;19904;-75
2021/08/23 11:22:22;;;;;;;;;;;20.80;99.90;;;;;;5050599;28;20284;-75
2021/08/23 11:24:47;;;;;;;;;;;21.10;99.90;;;;;;5051602;28;19917;-74
2021/08/23 11:27:13;;;;;;;;;;;20.60;99.90;;;;;;5052516;28;19904;-75
2021/08/23 11:29:46;;;;;;;;;;;20.60;99.90;;;;;;5055309;28;19951;-76
2021/08/23 11:32:11;;;;;;;;;;;20.50;99.90;;;;;;5055254;28;20011;-75
2021/08/23 11:34:37;;;;;;;;;;;20.70;99.90;;;;;;5055287;28;19948;-74
2021/08/23 11:37:04;;;;;;;;;;;21.40;99.90;;;;;;5054832;28;19912;-76
2021/08/23 11:39:33;;;;;;;;;;;21.80;99.90;;;;;;5053687;28;19955;-73
2021/08/23 11:42:00;;;;;;;;;;;21.30;99.90;;;;;;5054906;28;20373;-75
2021/08/23 11:44:25;;;;;;;;;;;21.40;99.90;;;;;;5053528;28;19905;-75
2021/08/23 11:46:55;;;;;;;;;;;21.50;99.90;;;;;;5054476;28;19905;-76
2021/08/23 11:49:27;;;;;;;;;;;21.10;99.90;;;;;;5054710;28;19996;-74
2021/08/23 11:51:53;;;;;;;;;;;21.30;99.90;;;;;;5053469;28;19909;-74
2021/08/23 11:54:18;;;;;;;;;;;21.60;99.90;;;;;;5069389;28;19989;-75
2021/08/23 11:56:44;;;;;;;;;;;21.50;99.90;;;;;;5072967;28;19908;-73
2021/08/23 11:59:13;;;;;;;;;;;22.30;99.90;;;;;;5073297;28;19919;-75
2021/08/23 12:01:39;;;;;;;;;;;21.70;99.90;;;;;;5073066;28;19904;-78
2021/08/23 12:04:04;;;;;;;;;;;21.30;99.90;;;;;;5074676;28;19911;-73
2021/08/23 12:06:33;;;;;;;;;;;21.70;99.90;;;;;;5074559;28;20322;-74
2021/08/23 12:08:59;;;;;;;;;;;21.70;99.90;;;;;;5064761;28;20327;-74
2021/08/23 12:11:24;;;;;;;;;;;21.70;99.90;;;;;;5054407;28;19919;-74
2021/08/23 12:13:51;;;;;;;;;;;21.00;99.90;;;;;;5053002;28;19908;-75
2021/08/23 12:16:17;;;;;;;;;;;20.60;99.90;;;;;;5054041;28;19948;-75
2021/08/23 12:18:44;;;;;;;;;;;20.60;99.90;;;;;;5052894;28;20296;-74
2021/08/23 12:21:11;;;;;;;;;;;20.90;99.90;;;;;;5052955;28;19948;-75
2021/08/23 12:23:43;;;;;;;;;;;21.50;99.90;;;;;;5054056;28;19915;-74
2021/08/23 12:26:09;;;;;;;;;;;21.30;99.90;;;;;;5053851;28;19911;-75
2021/08/23 12:28:34;;;;;;;;;;;21.10;99.90;;;;;;5053831;28;19904;-74
2021/08/23 12:31:04;;;;;;;;;;;21.00;99.90;;;;;;5054019;28;20020;-75
2021/08/23 12:33:29;;;;;;;;;;;21.40;99.90;;;;;;5053838;28;19928;-74
2021/08/23 12:35:55;;;;;;;;;;;22.00;99.90;;;;;;5053959;28;19967;-74
2021/08/23 12:38:20;;;;;;;;;;;22.30;99.90;;;;;;5052494;28;19992;-74
2021/08/23 12:40:46;;;;;;;;;;;22.30;99.90;;;;;;5053589;28;19920;-74
2021/08/23 12:43:11;;;;;;;;;;;22.30;99.90;;;;;;5053677;28;19901;-74
2021/08/23 12:45:37;;;;;;;;;;;21.60;99.90;;;;;;5053489;28;19908;-75
2021/08/23 12:48:03;;;;;;;;;;;21.80;99.90;;;;;;5053545;28;19905;-74
2021/08/23 12:50:28;;;;;;;;;;;21.80;99.90;;;;;;5053471;28;20310;-75
2021/08/23 12:52:54;;;;;;;;;;;21.80;99.90;;;;;;5053688;28;19976;-74
2021/08/23 12:55:20;;;;;;;;;;;21.80;99.90;;;;;;5053312;28;19950;-74
2021/08/23 12:57:45;;;;;;;;;;;22.00;99.90;;;;;;5052160;28;19905;-73
2021/08/23 13:00:11;;;;;;;;;;;22.00;99.90;;;;;;5052010;28;19959;-74
2021/08/23 13:02:37;;;;;;;;;;;22.00;99.90;;;;;;5053581;28;19908;-74
2021/08/23 13:05:03;;;;;;;;;;;22.00;99.90;;;;;;5053311;28;20376;-73
2021/08/23 13:07:28;;;;;;;;;;;22.00;99.90;;;;;;5053021;28;19912;-74
2021/08/23 13:09:53;;;;;;;;;;;22.20;99.90;;;;;;5051571;28;19991;-75
2021/08/23 13:12:19;;;;;;;;;;;22.30;99.90;;;;;;5051881;28;19904;-74
2021/08/23 13:14:44;;;;;;;;;;;22.70;99.90;;;;;;5054005;28;19950;-75
2021/08/23 13:17:10;;;;;;;;;;;22.70;99.90;;;;;;5053420;28;19908;-74
2021/08/23 13:19:36;;;;;;;;;;;22.50;99.90;;;;;;5051985;28;19905;-75
2021/08/23 13:22:02;;;;;;;;;;;22.60;99.90;;;;;;5053250;28;19921;-74
2021/08/23 13:24:27;;;;;;;;;;;22.40;99.90;;;;;;5053405;28;19908;-74
2021/08/23 13:26:52;;;;;;;;;;;22.50;99.90;;;;;;5053190;28;20360;-74
2021/08/23 13:29:18;;;;;;;;;;;22.20;99.90;;;;;;5052077;28;20018;-76
2021/08/23 13:31:43;;;;;;;;;;;21.90;99.90;;;;;;5053000;28;19904;-74
2021/08/23 13:34:09;;;;;;;;;;;22.10;99.90;;;;;;5051505;28;19966;-75
2021/08/23 13:36:34;;;;;;;;;;;21.90;99.90;;;;;;5052593;28;20357;-74
2021/08/23 13:39:00;;;;;;;;;;;21.70;99.90;;;;;;5051568;28;19905;-74
2021/08/23 13:41:25;;;;;;;;;;;21.40;99.90;;;;;;5052954;28;19905;-77
2021/08/23 13:43:51;;;;;;;;;;;21.10;99.90;;;;;;5052719;28;19987;-75
2021/08/23 13:46:16;;;;;;;;;;;21.00;99.90;;;;;;5050899;28;20400;-74
2021/08/23 13:48:42;;;;;;;;;;;21.20;99.90;;;;;;5051553;28;19905;-74
2021/08/23 13:51:07;;;;;;;;;;;22.00;99.90;;;;;;5050533;28;20332;-74
2021/08/23 13:53:33;;;;;;;;;;;22.00;99.90;;;;;;5052238;28;19904;-74
2021/08/23 13:55:58;;;;;;;;;;;22.40;99.90;;;;;;5052335;28;19912;-74
2021/08/23 13:58:24;;;;;;;;;;;22.20;99.90;;;;;;5052398;28;20411;-76
2021/08/23 14:00:49;;;;;;;;;;;22.10;99.90;;;;;;5060914;28;19908;-74
2021/08/23 14:03:15;;;;;;;;;;;21.80;99.90;;;;;;5072192;28;19908;-75
2021/08/23 14:05:40;;;;;;;;;;;21.90;99.90;;;;;;5070679;28;19910;-75
2021/08/23 14:08:06;;;;;;;;;;;22.20;99.90;;;;;;5069702;28;19905;-74
2021/08/23 14:10:33;;;;;;;;;;;22.30;99.90;;;;;;5066481;28;19969;-75